createdAt,value
2022-09-26T00:00:43.113Z,86.92
2022-09-26T00:03:11.098Z,86.13
2022-09-26T00:05:38.938Z,85.58
2022-09-26T00:08:07.361Z,85.56
2022-09-26T00:10:35.025Z,85.53
2022-09-26T00:13:01.794Z,85.91
2022-09-26T00:15:28.474Z,85.01
2022-09-26T00:17:55.458Z,85.08
2022-09-26T00:20:22.107Z,85.07
2022-09-26T00:22:48.769Z,84.96
2022-09-26T00:25:15.864Z,84.64
2022-09-26T00:27:42.446Z,84.61
2022-09-26T00:30:09.655Z,84.51
2022-09-26T00:32:36.680Z,84.47
2022-09-26T00:35:03.531Z,84.68
2022-09-26T00:37:30.308Z,84.52
2022-09-26T00:39:57.243Z,85.23
2022-09-26T00:42:24.813Z,85.32
2022-09-26T00:44:56.799Z,85.54
2022-09-26T00:47:41.303Z,85.47
2022-09-26T00:50:24.906Z,85.71
2022-09-26T00:52:58.796Z,86.14
2022-09-26T00:55:30.210Z,86.20
2022-09-26T00:58:04.553Z,85.79
2022-09-26T01:00:31.807Z,86.46
2022-09-26T01:02:58.992Z,86.69
2022-09-26T01:05:26.093Z,86.43
2022-09-26T01:07:55.837Z,86.35
2022-09-26T01:10:24.600Z,85.99
2022-09-26T01:12:52.434Z,86.22
2022-09-26T01:15:19.200Z,85.88
2022-09-26T01:17:48.580Z,85.56
2022-09-26T01:20:30.862Z,85.36
2022-09-26T01:23:09.951Z,85.83
2022-09-26T01:25:48.710Z,85.80
2022-09-26T01:28:34.267Z,85.41
2022-09-26T01:31:12.823Z,84.59
2022-09-26T01:33:56.521Z,85.12
2022-09-26T01:36:30.993Z,85.00
2022-09-26T01:39:08.508Z,85.65
2022-09-26T01:41:48.242Z,85.42
2022-09-26T01:44:30.982Z,85.21
2022-09-26T01:47:15.057Z,84.43
2022-09-26T01:50:01.063Z,84.05
2022-09-26T01:52:37.222Z,83.57
2022-09-26T01:55:32.364Z,83.02
2022-09-26T01:58:10.015Z,82.99
2022-09-26T02:00:39.861Z,82.89
2022-09-26T02:03:13.687Z,83.05
2022-09-26T02:06:02.514Z,82.76
2022-09-26T02:08:44.310Z,82.58
2022-09-26T02:11:17.326Z,81.58
2022-09-26T02:13:55.759Z,81.79
2022-09-26T02:16:36.382Z,82.01
2022-09-26T02:19:10.311Z,82.14
2022-09-26T02:21:37.456Z,82.64
2022-09-26T02:24:04.494Z,83.01
2022-09-26T02:26:33.709Z,82.20
2022-09-26T02:29:01.702Z,83.43
2022-09-26T02:31:34.282Z,84.32
2022-09-26T02:34:03.850Z,84.40
2022-09-26T02:36:33.671Z,84.41
2022-09-26T02:39:01.726Z,84.83
2022-09-26T02:42:28.363Z,84.32
2022-09-26T02:45:50.403Z,84.66
2022-09-26T02:48:38.847Z,84.49
2022-09-26T02:51:30.555Z,84.62
2022-09-26T02:54:22.772Z,85.08
2022-09-26T02:57:09.500Z,85.24
2022-09-26T02:59:59.200Z,86.13
2022-09-26T03:02:34.000Z,86.16
2022-09-26T03:05:20.561Z,86.57
2022-09-26T03:07:54.302Z,87.05
2022-09-26T03:10:21.660Z,87.00
2022-09-26T03:12:50.978Z,86.79
2022-09-26T03:15:19.664Z,87.18
2022-09-26T03:17:54.078Z,87.61
2022-09-26T03:20:23.053Z,88.00
2022-09-26T03:22:51.083Z,87.58
2022-09-26T03:25:24.133Z,87.74
2022-09-26T03:27:53.947Z,87.67
2022-09-26T03:30:22.113Z,87.41
2022-09-26T03:32:50.644Z,88.19
2022-09-26T03:35:17.740Z,88.04
2022-09-26T03:37:45.604Z,87.66
2022-09-26T03:40:12.766Z,87.64
2022-09-26T03:42:41.902Z,88.09
2022-09-26T03:45:10.941Z,88.72
2022-09-26T03:47:42.027Z,88.69
2022-09-26T03:50:09.544Z,89.40
2022-09-26T03:52:36.632Z,89.46
2022-09-26T03:55:04.592Z,89.86
2022-09-26T03:57:31.578Z,90.11
2022-09-26T03:59:59.262Z,89.64
2022-09-26T04:02:27.225Z,90.12
2022-09-26T04:04:55.113Z,90.31
2022-09-26T04:07:22.118Z,90.25
2022-09-26T04:09:48.822Z,90.44
2022-09-26T04:12:16.486Z,90.38
2022-09-26T04:14:43.513Z,90.41
2022-09-26T04:17:10.527Z,90.78
2022-09-26T04:19:37.988Z,90.62
2022-09-26T04:22:05.902Z,90.82
2022-09-26T04:24:32.971Z,91.30
2022-09-26T04:27:00.818Z,91.23
2022-09-26T04:29:29.168Z,90.88
2022-09-26T04:31:56.438Z,91.27
2022-09-26T04:34:27.292Z,91.66
2022-09-26T04:36:54.723Z,91.93
2022-09-26T04:39:21.521Z,92.48
2022-09-26T04:41:48.584Z,92.64
2022-09-26T04:44:15.250Z,92.08
2022-09-26T04:46:42.197Z,92.14
2022-09-26T04:49:09.630Z,92.40
2022-09-26T04:51:37.168Z,92.33
2022-09-26T04:54:04.295Z,92.61
2022-09-26T04:56:32.266Z,92.85
2022-09-26T04:58:59.454Z,92.99
2022-09-26T05:01:27.199Z,93.27
2022-09-26T05:03:57.655Z,93.39
2022-09-26T05:06:25.167Z,93.32
2022-09-26T05:08:53.506Z,93.75
2022-09-26T05:11:21.572Z,93.96
2022-09-26T05:13:53.560Z,93.86
2022-09-26T05:16:22.551Z,94.00
2022-09-26T05:18:53.133Z,94.02
2022-09-26T05:21:19.917Z,94.18
2022-09-26T05:24:05.530Z,94.29
2022-09-26T05:26:40.373Z,94.23
2022-09-26T05:29:09.029Z,94.18
2022-09-26T05:31:39.453Z,93.76
2022-09-26T05:34:08.663Z,94.18
2022-09-26T05:36:36.338Z,94.19
2022-09-26T05:39:26.750Z,94.40
2022-09-26T05:41:54.623Z,94.38
2022-09-26T05:44:21.273Z,94.01
2022-09-26T05:46:48.552Z,93.65
2022-09-26T05:49:15.744Z,93.27
2022-09-26T05:51:43.186Z,92.92
2022-09-26T05:54:10.523Z,93.21
2022-09-26T05:56:37.888Z,93.38
2022-09-26T05:59:06.898Z,93.34
2022-09-26T06:01:46.890Z,93.53
2022-09-26T06:04:15.417Z,93.66
2022-09-26T06:06:46.190Z,93.92
2022-09-26T06:09:15.153Z,94.02
2022-09-26T06:11:43.718Z,93.85
2022-09-26T06:14:10.913Z,94.06
2022-09-26T06:16:38.012Z,94.40
2022-09-26T06:19:05.158Z,94.31
2022-09-26T06:21:31.884Z,94.15
2022-09-26T06:23:59.174Z,94.07
2022-09-26T06:26:28.946Z,94.23
2022-09-26T06:28:58.230Z,94.53
2022-09-26T06:31:26.876Z,94.80
2022-09-26T06:33:58.526Z,94.62
2022-09-26T06:36:26.414Z,94.39
2022-09-26T06:38:54.985Z,94.13
2022-09-26T06:41:22.222Z,94.14
2022-09-26T06:43:50.017Z,93.85
2022-09-26T06:46:17.957Z,93.62
2022-09-26T06:48:46.663Z,93.54
2022-09-26T06:51:15.270Z,93.34
2022-09-26T06:53:44.613Z,92.83
2022-09-26T06:56:13.348Z,92.54
2022-09-26T06:58:40.660Z,92.38
2022-09-26T07:01:08.579Z,92.29
2022-09-26T07:03:42.924Z,92.18
2022-09-26T07:06:14.005Z,92.24
2022-09-26T07:09:01.630Z,92.08
2022-09-26T07:11:42.136Z,92.21
2022-09-26T07:14:18.257Z,91.98
2022-09-26T07:16:48.569Z,91.90
2022-09-26T07:19:17.002Z,92.21
2022-09-26T07:21:44.902Z,92.45
2022-09-26T07:24:15.016Z,91.98
2022-09-26T07:26:42.475Z,91.47
2022-09-26T07:29:09.966Z,91.10
2022-09-26T07:31:37.195Z,91.27
2022-09-26T07:34:08.935Z,90.44
2022-09-26T07:36:36.323Z,90.31
2022-09-26T07:39:04.028Z,89.75
2022-09-26T07:41:31.164Z,89.47
2022-09-26T07:47:04.603Z,89.36
2022-09-26T07:49:50.568Z,89.12
2022-09-26T07:52:22.300Z,88.96
2022-09-26T07:54:50.546Z,89.04
2022-09-26T07:57:19.545Z,88.49
2022-09-26T07:59:50.418Z,88.36
2022-09-26T08:02:23.595Z,88.14
2022-09-26T08:04:58.804Z,88.25
2022-09-26T08:07:27.506Z,88.21
2022-09-26T08:09:56.907Z,88.28
2022-09-26T08:12:27.030Z,87.99
2022-09-26T08:14:56.300Z,88.38
2022-09-26T08:17:24.131Z,88.66
2022-09-26T08:19:51.732Z,88.52
2022-09-26T08:22:19.134Z,88.40
2022-09-26T08:24:50.901Z,88.14
2022-09-26T08:27:18.370Z,88.26
2022-09-26T08:29:49.528Z,88.06
2022-09-26T08:32:17.542Z,87.68
2022-09-26T08:34:44.969Z,87.38
2022-09-26T08:37:29.498Z,87.34
2022-09-26T08:40:13.096Z,87.30
2022-09-26T08:42:53.687Z,87.02
2022-09-26T08:45:56.424Z,87.26
2022-09-26T08:48:31.441Z,87.47
2022-09-26T08:51:29.383Z,87.48
2022-09-26T08:54:24.835Z,87.12
2022-09-26T08:57:15.168Z,86.72
2022-09-26T08:59:46.058Z,85.83
2022-09-26T09:02:44.315Z,84.46
2022-09-26T09:05:23.660Z,83.73
2022-09-26T09:07:54.632Z,82.41
2022-09-26T09:10:51.938Z,81.80
2022-09-26T09:13:37.601Z,80.29
2022-09-26T09:16:23.720Z,80.17
2022-09-26T09:19:11.629Z,79.74
2022-09-26T09:21:41.822Z,79.38
2022-09-26T09:24:37.218Z,78.04
2022-09-26T09:30:22.090Z,78.53
2022-09-26T09:33:03.649Z,78.34
2022-09-26T09:35:41.539Z,78.33
2022-09-26T09:38:16.261Z,77.94
2022-09-26T09:40:50.927Z,77.77
2022-09-26T09:43:35.604Z,78.13
2022-09-26T09:46:06.004Z,78.67
2022-09-26T09:48:33.387Z,78.14
2022-09-26T09:51:16.850Z,78.55
2022-09-26T09:53:50.603Z,78.92
2022-09-26T09:56:46.715Z,78.50
2022-09-26T09:59:47.235Z,78.87
2022-09-26T10:02:32.307Z,78.92
2022-09-26T10:05:18.553Z,78.87
2022-09-26T10:07:47.621Z,79.67
2022-09-26T10:10:21.844Z,80.48
2022-09-26T10:12:52.783Z,80.32
2022-09-26T10:15:26.270Z,80.69
2022-09-26T10:18:23.962Z,80.39
2022-09-26T10:20:53.997Z,80.17
2022-09-26T10:23:31.135Z,79.84
2022-09-26T10:26:04.627Z,79.64
2022-09-26T10:28:36.880Z,79.54
2022-09-26T10:31:10.720Z,79.21
2022-09-26T10:33:45.320Z,78.03
2022-09-26T10:36:27.967Z,77.57
2022-09-26T10:39:21.307Z,77.32
2022-09-26T10:41:58.003Z,77.46
2022-09-26T10:44:33.673Z,77.30
2022-09-26T10:47:13.136Z,76.79
2022-09-26T10:49:51.271Z,76.07
2022-09-26T10:52:36.521Z,75.83
2022-09-26T10:55:15.418Z,75.46
2022-09-26T10:57:48.029Z,75.46
2022-09-26T11:00:37.172Z,74.59
2022-09-26T11:03:07.531Z,74.72
2022-09-26T11:05:57.326Z,74.23
2022-09-26T11:08:30.371Z,73.95
2022-09-26T11:11:00.548Z,73.26
2022-09-26T11:13:50.140Z,73.77
2022-09-26T11:16:20.275Z,72.97
2022-09-26T11:19:01.684Z,73.44
2022-09-26T11:21:47.980Z,71.75
2022-09-26T11:24:37.432Z,71.51
2022-09-26T11:27:31.185Z,71.75
2022-09-26T11:30:09.380Z,71.87
2022-09-26T11:32:42.869Z,71.82
2022-09-26T11:35:16.519Z,71.41
2022-09-26T11:37:55.197Z,71.46
2022-09-26T11:40:50.522Z,71.37
2022-09-26T11:43:36.182Z,70.73
2022-09-26T11:46:15.242Z,69.97
2022-09-26T11:48:49.129Z,70.00
2022-09-26T11:51:40.140Z,70.34
2022-09-26T11:54:45.629Z,69.96
2022-09-26T11:57:28.079Z,69.78
2022-09-26T12:00:02.468Z,69.16
2022-09-26T12:02:58.367Z,70.47
2022-09-26T12:05:44.329Z,68.21
2022-09-26T12:08:42.039Z,68.45
2022-09-26T12:11:28.078Z,68.28
2022-09-26T12:14:15.917Z,68.04
2022-09-26T12:16:58.777Z,67.27
2022-09-26T12:19:32.065Z,65.25
2022-09-26T12:22:28.480Z,65.58
2022-09-26T12:25:00.637Z,65.81
2022-09-26T12:27:36.157Z,65.30
2022-09-26T12:30:10.784Z,65.62
2022-09-26T12:33:00.947Z,65.57
2022-09-26T12:35:55.816Z,65.47
2022-09-26T12:38:32.811Z,65.76
2022-09-26T12:41:23.054Z,66.26
2022-09-26T12:44:01.875Z,66.16
2022-09-26T12:46:37.596Z,66.03
2022-09-26T12:49:32.083Z,66.28
2022-09-26T12:52:27.277Z,66.83
2022-09-26T12:55:00.371Z,66.66
2022-09-26T12:57:32.948Z,66.54
2022-09-26T13:00:31.351Z,66.59
2022-09-26T13:03:28.748Z,66.57
2022-09-26T13:06:33.517Z,66.38
2022-09-26T13:09:45.759Z,65.70
2022-09-26T13:12:22.918Z,65.96
2022-09-26T13:15:00.905Z,66.19
2022-09-26T13:17:34.644Z,66.45
2022-09-26T13:20:06.071Z,66.34
2022-09-26T13:22:34.448Z,66.05
2022-09-26T13:25:21.824Z,67.04
2022-09-26T13:28:21.260Z,66.41
2022-09-26T13:30:54.825Z,66.78
2022-09-26T13:33:31.310Z,66.99
2022-09-26T13:36:00.896Z,67.18
2022-09-26T13:38:34.852Z,67.82
2022-09-26T13:41:26.933Z,67.77
2022-09-26T13:44:09.203Z,67.70
2022-09-26T13:46:48.143Z,68.42
2022-09-26T13:49:36.780Z,68.18
2022-09-26T13:52:19.218Z,68.14
2022-09-26T13:55:02.141Z,68.09
2022-09-26T13:57:46.839Z,68.49
2022-09-26T14:00:24.338Z,68.43
2022-09-26T14:03:10.378Z,68.57
2022-09-26T14:05:43.662Z,68.85
2022-09-26T14:08:44.990Z,69.50
2022-09-26T14:11:27.781Z,69.90
2022-09-26T14:14:18.351Z,69.75
2022-09-26T14:16:49.801Z,69.73
2022-09-26T14:19:46.568Z,70.69
2022-09-26T14:22:20.556Z,70.40
2022-09-26T14:24:49.216Z,70.88
2022-09-26T14:27:15.959Z,70.78
2022-09-26T14:29:44.532Z,70.71
2022-09-26T14:32:18.579Z,71.30
2022-09-26T14:34:57.306Z,71.77
2022-09-26T14:37:24.257Z,72.15
2022-09-26T14:40:01.076Z,72.43
2022-09-26T14:42:34.275Z,72.35
2022-09-26T14:45:05.095Z,71.97
2022-09-26T14:47:48.654Z,71.22
2022-09-26T14:50:20.790Z,70.79
2022-09-26T14:52:57.988Z,70.59
2022-09-26T14:55:26.975Z,70.77
2022-09-26T14:58:37.284Z,71.88
2022-09-26T15:01:18.025Z,72.00
2022-09-26T15:04:12.760Z,72.77
2022-09-26T15:06:46.320Z,72.88
2022-09-26T15:09:55.653Z,73.54
2022-09-26T15:12:44.322Z,73.43
2022-09-26T15:15:43.441Z,73.67
2022-09-26T15:18:28.579Z,74.10
2022-09-26T15:21:04.358Z,74.40
2022-09-26T15:23:34.125Z,75.07
2022-09-26T15:26:06.088Z,75.35
2022-09-26T15:28:34.845Z,75.53
2022-09-26T15:31:28.182Z,75.86
2022-09-26T15:34:01.981Z,75.98
2022-09-26T15:36:32.141Z,76.19
2022-09-26T15:38:59.846Z,76.49
2022-09-26T15:41:45.514Z,76.71
2022-09-26T15:44:22.631Z,76.92
2022-09-26T15:46:50.656Z,77.32
2022-09-26T15:49:22.603Z,77.68
2022-09-26T15:51:54.554Z,77.98
2022-09-26T15:54:28.059Z,78.38
2022-09-26T15:56:58.677Z,78.70
2022-09-26T15:59:41.437Z,78.95
2022-09-26T16:02:24.406Z,79.07
2022-09-26T16:04:54.822Z,79.29
2022-09-26T16:07:26.494Z,79.76
2022-09-26T16:09:56.062Z,80.11
2022-09-26T16:12:26.509Z,80.38
2022-09-26T16:14:58.405Z,80.71
2022-09-26T16:17:35.848Z,80.97
2022-09-26T16:20:25.669Z,81.23
2022-09-26T16:23:01.828Z,81.63
2022-09-26T16:25:52.794Z,81.72
2022-09-26T16:28:26.127Z,81.67
2022-09-26T16:30:53.145Z,82.16
2022-09-26T16:33:32.001Z,81.97
2022-09-26T16:36:13.315Z,81.96
2022-09-26T16:38:40.312Z,82.06
2022-09-26T16:41:56.483Z,82.22
2022-09-26T16:44:31.909Z,82.09
2022-09-26T16:47:04.678Z,82.35
2022-09-26T16:49:47.139Z,82.23
2022-09-26T16:52:36.567Z,82.39
2022-09-26T16:55:08.950Z,82.38
2022-09-26T16:57:39.947Z,82.64
2022-09-26T17:00:40.208Z,82.77
2022-09-26T17:03:22.551Z,82.89
2022-09-26T17:05:50.648Z,83.31
2022-09-26T17:08:18.531Z,83.50
2022-09-26T17:10:46.334Z,83.72
2022-09-26T17:13:22.685Z,84.08
2022-09-26T17:15:54.724Z,84.00
2022-09-26T17:18:23.915Z,84.37
2022-09-26T17:20:50.831Z,83.67
2022-09-26T17:23:38.743Z,84.70
2022-09-26T17:26:06.850Z,85.18
2022-09-26T17:28:40.114Z,84.93
2022-09-26T17:31:11.999Z,85.09
2022-09-26T17:33:40.702Z,85.22
2022-09-26T17:36:16.686Z,84.57
2022-09-26T17:38:43.830Z,85.46
2022-09-26T17:41:12.650Z,85.53
2022-09-26T17:43:41.115Z,85.78
2022-09-26T17:46:15.208Z,85.70
2022-09-26T17:48:43.559Z,85.98
2022-09-26T17:51:13.896Z,86.33
2022-09-26T17:53:50.127Z,86.39
2022-09-26T17:56:22.020Z,86.42
2022-09-26T17:58:49.633Z,86.95
2022-09-26T18:01:33.681Z,86.52
2022-09-26T18:04:06.223Z,86.93
2022-09-26T18:06:33.443Z,86.83
2022-09-26T18:09:07.711Z,87.01
2022-09-26T18:11:36.279Z,86.98
2022-09-26T18:14:06.137Z,87.46
2022-09-26T18:16:33.072Z,86.79
2022-09-26T18:19:06.071Z,86.79
2022-09-26T18:21:34.259Z,86.79
2022-09-26T18:24:06.466Z,86.71
2022-09-26T18:26:42.259Z,87.10
2022-09-26T18:29:13.584Z,87.63
2022-09-26T18:31:41.570Z,88.07
2022-09-26T18:34:18.765Z,88.10
2022-09-26T18:36:46.971Z,88.97
2022-09-26T18:39:13.754Z,88.91
2022-09-26T18:41:40.642Z,89.14
2022-09-26T18:44:16.594Z,89.83
2022-09-26T18:46:46.235Z,89.95
2022-09-26T18:49:14.380Z,90.28
2022-09-26T18:51:41.551Z,90.08
2022-09-26T18:54:16.544Z,90.00
2022-09-26T18:57:02.587Z,90.74
2022-09-26T18:59:32.253Z,91.68
2022-09-26T19:02:02.040Z,92.02
2022-09-26T19:04:30.723Z,91.81
2022-09-26T19:07:01.107Z,91.12
2022-09-26T19:09:32.847Z,91.21
2022-09-26T19:12:00.463Z,91.09
2022-09-26T19:14:29.115Z,91.42
2022-09-26T19:16:56.695Z,91.96
2022-09-26T19:19:24.451Z,91.94
2022-09-26T19:21:53.206Z,92.11
2022-09-26T19:24:37.968Z,92.01
2022-09-26T19:27:10.966Z,90.84
2022-09-26T19:29:43.636Z,89.76
2022-09-26T19:32:25.551Z,89.25
2022-09-26T19:34:56.938Z,89.15
2022-09-26T19:37:23.678Z,88.67
2022-09-26T19:39:50.653Z,87.96
2022-09-26T19:42:18.345Z,87.49
2022-09-26T19:44:45.399Z,86.37
2022-09-26T19:47:18.270Z,86.15
2022-09-26T19:49:48.566Z,85.66
2022-09-26T19:52:18.051Z,85.38
2022-09-26T19:54:45.453Z,87.44
2022-09-26T19:57:20.097Z,87.88
2022-09-26T19:59:48.514Z,88.36
2022-09-26T20:02:21.109Z,88.65
2022-09-26T20:04:48.690Z,89.02
2022-09-26T20:07:19.161Z,89.43
2022-09-26T20:09:46.402Z,90.27
2022-09-26T20:12:13.950Z,90.57
2022-09-26T20:14:40.928Z,90.83
2022-09-26T20:17:23.230Z,91.19
2022-09-26T20:19:54.007Z,91.17
2022-09-26T20:22:24.560Z,91.23
2022-09-26T20:24:55.403Z,91.04
2022-09-26T20:27:24.813Z,91.04
2022-09-26T20:30:11.322Z,90.95
2022-09-26T20:32:40.718Z,90.62
2022-09-26T20:35:13.347Z,90.33
2022-09-26T20:37:40.538Z,90.33
2022-09-26T20:40:18.082Z,89.83
2022-09-26T20:42:48.486Z,90.24
2022-09-26T20:45:18.054Z,90.18
2022-09-26T20:47:45.107Z,90.17
2022-09-26T20:50:17.991Z,90.00
2022-09-26T20:52:45.218Z,89.59
2022-09-26T20:55:18.016Z,89.25
2022-09-26T20:57:45.815Z,89.05
2022-09-26T21:00:20.669Z,88.80
2022-09-26T21:02:51.673Z,88.04
2022-09-26T21:05:22.996Z,88.25
2022-09-26T21:07:51.634Z,88.93
2022-09-26T21:10:33.002Z,89.16
2022-09-26T21:13:00.662Z,89.52
2022-09-26T21:15:30.937Z,89.22
2022-09-26T21:17:58.244Z,88.84
2022-09-26T21:20:33.889Z,89.29
2022-09-26T21:23:01.961Z,89.05
2022-09-26T21:25:31.297Z,88.90
2022-09-26T21:28:26.478Z,88.94
2022-09-26T21:31:00.405Z,89.03
2022-09-26T21:33:27.159Z,88.98
2022-09-26T21:35:54.726Z,89.06
2022-09-26T21:38:22.088Z,89.18
2022-09-26T21:40:55.420Z,88.88
2022-09-26T21:43:27.504Z,88.53
2022-09-26T21:45:54.307Z,88.65
2022-09-26T21:48:21.352Z,89.00
2022-09-26T21:50:57.663Z,89.04
2022-09-26T21:53:33.008Z,88.87
2022-09-26T21:56:07.393Z,88.70
2022-09-26T21:58:37.606Z,88.68
2022-09-26T22:01:04.987Z,88.70
2022-09-26T22:03:32.200Z,88.83
2022-09-26T22:06:01.371Z,89.00
2022-09-26T22:08:30.996Z,89.43
2022-09-26T22:10:57.971Z,89.45
2022-09-26T22:13:24.916Z,89.62
2022-09-26T22:15:51.649Z,89.92
2022-09-26T22:18:18.662Z,90.08
2022-09-26T22:20:45.324Z,90.25
2022-09-26T22:23:12.036Z,90.48
2022-09-26T22:25:42.800Z,90.58
2022-09-26T22:28:09.659Z,90.84
2022-09-26T22:30:39.408Z,90.49
2022-09-26T22:33:06.468Z,90.80
2022-09-26T22:35:33.081Z,90.83
2022-09-26T22:37:59.711Z,90.75
2022-09-26T22:40:26.785Z,90.85
2022-09-26T22:42:53.408Z,90.63
2022-09-26T22:45:20.527Z,90.87
2022-09-26T22:47:47.467Z,91.28
2022-09-26T22:50:14.889Z,91.39
2022-09-26T22:52:41.604Z,91.19
2022-09-26T22:55:08.806Z,91.15
2022-09-26T22:57:35.791Z,91.27
2022-09-26T23:00:03.771Z,91.38
2022-09-26T23:02:30.954Z,91.30
2022-09-26T23:04:57.896Z,91.15
2022-09-26T23:07:24.616Z,91.00
2022-09-26T23:09:51.817Z,91.23
2022-09-26T23:12:19.115Z,91.37
2022-09-26T23:14:45.896Z,91.30
2022-09-26T23:17:13.197Z,91.46
2022-09-26T23:19:40.250Z,91.49
2022-09-26T23:22:06.872Z,91.46
2022-09-26T23:24:33.763Z,91.51
2022-09-26T23:27:00.362Z,91.47
2022-09-26T23:29:26.984Z,91.67
2022-09-26T23:31:54.002Z,91.51
2022-09-26T23:34:20.960Z,91.73
2022-09-26T23:36:47.762Z,91.68
2022-09-26T23:39:14.820Z,91.70
2022-09-26T23:41:41.687Z,91.87
2022-09-26T23:44:08.468Z,92.01
2022-09-26T23:46:35.546Z,92.24
2022-09-26T23:49:02.247Z,92.36
2022-09-26T23:51:28.961Z,92.56
2022-09-26T23:53:55.868Z,92.61
2022-09-26T23:56:22.511Z,92.65
2022-09-26T23:58:49.310Z,92.74
